Time;durP1;ratioP1;P1;durP2;ratioP2;P2;SDS_P1;SDS_P2;PMS_P1;PMS_P2;Temp;Humidity;BMP_temperature;BMP_pressure;BME280_temperature;BME280_humidity;BME280_pressure;Samples;Min_cycle;Max_cycle;Signal;HPM_P1;HPM_P2
2021/07/31 00:01:38;;;;;;;0.10;0.10;;;;;;;17.91;82.08;98570.34;4905197;29;20060;-82
2021/07/31 00:04:07;;;;;;;0.10;0.10;;;;;;;17.87;81.95;98577.31;4907679;29;20048;-82
2021/07/31 00:06:33;;;;;;;0.10;0.10;;;;;;;17.82;82.27;98568.97;4915406;29;20044;-82
2021/07/31 00:08:59;;;;;;;0.10;0.10;;;;;;;17.80;82.46;98569.16;4909773;29;20047;-81
2021/07/31 00:11:25;;;;;;;0.10;0.10;;;;;;;17.81;82.46;98567.28;4928213;29;20060;-79
2021/07/31 00:13:51;;;;;;;0.10;0.10;;;;;;;17.73;82.50;98570.25;4909306;29;20056;-81
2021/07/31 00:16:17;;;;;;;0.10;0.10;;;;;;;17.65;82.49;98567.81;4927159;29;20047;-82
2021/07/31 00:18:43;;;;;;;0.10;0.10;;;;;;;17.65;82.50;98570.53;4899123;29;20059;-83
2021/07/31 00:21:09;;;;;;;0.10;0.10;;;;;;;17.62;82.76;98557.31;4928356;29;20047;-81
2021/07/31 00:23:35;;;;;;;0.10;0.10;;;;;;;17.55;83.23;98571.91;4910381;29;20079;-83
2021/07/31 00:26:01;;;;;;;0.10;0.10;;;;;;;17.56;83.29;98575.47;4904092;29;20135;-81
2021/07/31 00:28:27;;;;;;;0.10;0.10;;;;;;;17.54;83.01;98572.94;4910572;29;20215;-79
2021/07/31 00:30:53;;;;;;;0.10;0.10;;;;;;;17.49;83.48;98575.50;4909519;29;20051;-85
2021/07/31 00:33:20;;;;;;;0.10;0.10;;;;;;;17.49;83.44;98567.31;4896428;29;20075;-81
2021/07/31 00:35:46;;;;;;;0.10;0.10;;;;;;;17.49;83.69;98570.06;4907662;29;20047;-81
2021/07/31 00:38:11;;;;;;;0.10;0.10;;;;;;;17.42;83.74;98563.81;4919030;29;20402;-81
2021/07/31 00:40:37;;;;;;;0.10;0.10;;;;;;;17.42;83.40;98573.91;4923985;29;20123;-79
2021/07/31 00:43:07;;;;;;;0.10;0.10;;;;;;;17.42;83.51;98563.81;4905747;29;20157;-81
2021/07/31 00:45:34;;;;;;;0.10;0.10;;;;;;;17.39;83.67;98569.69;4894077;29;20466;-80
2021/07/31 00:48:00;;;;;;;0.10;0.10;;;;;;;17.40;83.44;98565.06;4926953;29;20078;-81
2021/07/31 00:50:31;;;;;;;0.10;0.10;;;;;;;17.43;83.30;98568.19;4922388;29;20080;-79
2021/07/31 00:52:57;;;;;;;0.10;0.10;;;;;;;17.43;82.81;98570.94;4904680;29;20072;-80
2021/07/31 00:55:24;;;;;;;0.10;0.10;;;;;;;17.41;83.26;98570.34;4906820;29;20055;-81
2021/07/31 00:57:51;;;;;;;0.10;0.10;;;;;;;17.39;83.29;98572.44;4881689;29;20052;-81
2021/07/31 01:00:28;;;;;;;0.10;0.10;;;;;;;17.42;83.17;98566.53;4895281;29;20058;-81
2021/07/31 01:02:54;;;;;;;0.10;0.10;;;;;;;17.34;83.34;98566.81;4923273;29;20543;-81
2021/07/31 01:05:20;;;;;;;0.10;0.10;;;;;;;17.31;83.45;98564.50;4925425;29;20303;-82
2021/07/31 01:07:46;;;;;;;0.10;0.10;;;;;;;17.24;83.80;98571.91;4921455;29;20550;-79
2021/07/31 01:10:13;;;;;;;0.10;0.10;;;;;;;17.21;83.35;98572.34;4892307;29;20053;-80
2021/07/31 01:12:39;;;;;;;0.10;0.10;;;;;;;17.21;83.39;98572.34;4874981;29;20052;-82
2021/07/31 01:15:07;;;;;;;0.10;0.10;;;;;;;17.17;83.97;98576.59;4911161;29;20067;-80
2021/07/31 01:17:33;;;;;;;0.10;0.10;;;;;;;17.19;83.45;98579.94;4888541;29;20078;-79
2021/07/31 01:19:59;;;;;;;0.10;0.10;;;;;;;17.22;83.12;98580.34;4910285;29;20103;-80
2021/07/31 01:22:25;;;;;;;0.10;0.10;;;;;;;17.18;83.33;98568.16;4899732;29;20068;-80
2021/07/31 01:25:04;;;;;;;0.10;0.10;;;;;;;17.19;83.09;98574.50;4910504;29;20509;-82
2021/07/31 01:27:31;;;;;;;0.10;0.10;;;;;;;17.20;83.15;98576.97;4925796;29;20509;-81
2021/07/31 01:29:57;;;;;;;0.17;0.17;;;;;;;17.18;83.54;98572.78;4907070;29;20099;-81
2021/07/31 01:32:25;;;;;;;0.10;0.10;;;;;;;17.17;83.24;98577.41;4894066;29;20242;-83
2021/07/31 01:34:50;;;;;;;0.10;0.10;;;;;;;17.14;83.27;98577.84;4924188;29;20091;-81
2021/07/31 01:37:16;;;;;;;0.10;0.10;;;;;;;17.13;83.72;98580.81;4903150;29;20544;-81
2021/07/31 01:39:47;;;;;;;0.10;0.10;;;;;;;17.09;83.88;98586.72;4891126;29;20119;-81
2021/07/31 01:42:13;;;;;;;0.10;0.10;;;;;;;17.06;83.75;98581.69;4928264;29;20067;-80
2021/07/31 01:44:39;;;;;;;0.10;0.10;;;;;;;17.02;84.07;98585.91;4892379;29;20067;-79
2021/07/31 01:47:06;;;;;;;0.10;0.10;;;;;;;17.02;84.11;98588.66;4903293;29;20479;-81
2021/07/31 01:49:32;;;;;;;0.10;0.10;;;;;;;16.96;84.25;98583.22;4919768;29;20514;-81
2021/07/31 01:52:07;;;;;;;0.10;0.10;;;;;;;16.94;84.55;98583.44;4895299;29;20079;-81
2021/07/31 01:54:33;;;;;;;0.10;0.10;;;;;;;16.94;84.21;98583.44;4925563;29;20074;-79
2021/07/31 01:56:59;;;;;;;0.10;0.10;;;;;;;16.99;84.10;98591.81;4904024;29;20087;-80
2021/07/31 01:59:45;;;;;;;0.10;0.10;;;;;;;16.98;84.00;98584.69;4919943;29;20082;-80
2021/07/31 02:02:12;;;;;;;0.10;0.10;;;;;;;16.98;84.13;98587.41;4905875;29;20052;-82
2021/07/31 02:04:41;;;;;;;0.10;0.10;;;;;;;16.95;84.27;98579.66;4907239;29;20508;-81
2021/07/31 02:07:22;;;;;;;0.10;0.10;;;;;;;16.89;84.55;98585.97;4926065;29;20131;-82
2021/07/31 02:09:49;;;;;;;0.10;0.10;;;;;;;16.91;84.52;98589.34;4926581;29;20088;-80
2021/07/31 02:12:15;;;;;;;0.15;0.15;;;;;;;16.86;84.85;98584.53;4908228;29;20126;-80
2021/07/31 02:14:41;;;;;;;0.10;0.10;;;;;;;16.79;84.91;98586.47;4900360;29;20401;-79
2021/07/31 02:17:09;;;;;;;0.10;0.10;;;;;;;16.84;84.87;98599.47;4908800;29;20560;-82
2021/07/31 02:19:36;;;;;;;0.10;0.10;;;;;;;16.82;84.93;98580.56;4925246;29;20079;-81
2021/07/31 02:22:10;;;;;;;0.10;0.10;;;;;;;16.86;84.67;98594.63;4930158;29;20048;-81
2021/07/31 02:24:54;;;;;;;0.10;0.10;;;;;;;16.88;84.62;98595.22;4928315;29;20070;-81
2021/07/31 02:27:38;;;;;;;0.10;0.10;;;;;;;16.90;84.61;98597.75;4926176;29;20052;-79
2021/07/31 02:30:09;;;;;;;0.10;0.10;;;;;;;16.87;84.49;98593.56;4906033;29;20188;-81
2021/07/31 02:32:38;;;;;;;0.10;0.10;;;;;;;16.82;84.62;98601.59;4892668;29;20064;-80
2021/07/31 02:35:04;;;;;;;0.10;0.10;;;;;;;16.80;84.76;98603.69;4929425;29;20596;-81
2021/07/31 02:37:39;;;;;;;0.10;0.10;;;;;;;16.84;84.47;98604.91;4913755;29;20445;-80
2021/07/31 02:40:05;;;;;;;0.10;0.10;;;;;;;16.86;84.17;98608.28;4905647;29;20084;-80
2021/07/31 02:42:32;;;;;;;0.10;0.10;;;;;;;16.92;84.26;98604.66;4922288;29;20166;-80
2021/07/31 02:45:02;;;;;;;0.10;0.10;;;;;;;16.94;83.90;98605.28;4919206;29;20135;-83
2021/07/31 02:47:29;;;;;;;0.13;0.13;;;;;;;17.05;83.37;98601.03;4896763;29;20047;-79
2021/07/31 02:49:55;;;;;;;0.20;0.20;;;;;;;17.17;83.29;98604.72;4927791;29;20043;-81
2021/07/31 02:52:22;;;;;;;0.20;0.20;;;;;;;17.16;83.05;98605.81;4927509;29;20051;-81
2021/07/31 02:54:54;;;;;;;0.10;0.10;;;;;;;17.28;82.54;98605.94;4909746;29;20052;-81
2021/07/31 02:57:19;;;;;;;0.20;0.20;;;;;;;17.42;81.81;98601.22;4908934;29;20486;-80
2021/07/31 02:59:46;;;;;;;0.10;0.10;;;;;;;17.43;81.75;98606.44;4911256;29;20060;-81
2021/07/31 03:02:16;;;;;;;0.10;0.10;;;;;;;17.50;81.62;98601.78;4895161;29;20441;-81
2021/07/31 03:04:47;;;;;;;0.10;0.10;;;;;;;17.54;80.96;98600.28;4928098;29;20521;-81
2021/07/31 03:07:20;;;;;;;0.20;0.20;;;;;;;17.62;80.84;98612.00;4911577;29;20060;-79
2021/07/31 03:09:50;;;;;;;0.20;0.20;;;;;;;17.70;80.82;98603.53;4909380;29;20052;-79
2021/07/31 03:12:18;;;;;;;0.20;0.20;;;;;;;17.75;79.83;98612.75;4921539;29;20076;-80
2021/07/31 03:14:48;;;;;;;0.20;0.20;;;;;;;17.86;79.46;98605.72;4899637;29;20079;-81
2021/07/31 03:17:16;;;;;;;0.10;0.10;;;;;;;17.85;79.63;98612.25;4927238;29;20063;-79
2021/07/31 03:19:44;;;;;;;0.20;0.20;;;;;;;18.02;79.10;98605.13;4914512;29;20055;-80
2021/07/31 03:22:12;;;;;;;0.20;0.20;;;;;;;18.20;78.49;98608.97;4888682;29;20054;-81
2021/07/31 03:24:44;;;;;;;0.20;0.20;;;;;;;18.20;78.30;98614.44;4910185;29;20055;-80
2021/07/31 03:27:11;;;;;;;0.20;0.20;;;;;;;18.36;77.38;98613.03;4894363;29;20091;-79
2021/07/31 03:30:10;;;;;;;0.20;0.20;;;;;;;18.41;77.06;98611.28;4893475;29;20204;-81
2021/07/31 03:32:42;;;;;;;0.20;0.20;;;;;;;18.50;76.35;98615.41;4929831;29;20040;-80
2021/07/31 03:35:10;;;;;;;0.20;0.20;;;;;;;18.48;76.90;98611.22;4926504;29;20092;-80
2021/07/31 03:37:55;;;;;;;0.20;0.20;;;;;;;18.48;76.66;98623.00;4920065;29;20060;-81
2021/07/31 03:40:21;;;;;;;0.20;0.20;;;;;;;18.57;76.23;98620.78;4893021;29;20203;-82
2021/07/31 03:42:47;;;;;;;0.20;0.20;;;;;;;18.58;75.88;98621.63;4897768;29;20051;-82
2021/07/31 03:45:13;;;;;;;0.20;0.20;;;;;;;18.80;75.16;98625.59;4932547;29;20040;-79
2021/07/31 03:47:40;;;;;;;0.30;0.30;;;;;;;18.79;75.43;98629.38;4885854;29;20414;-83
2021/07/31 03:50:08;;;;;;;0.20;0.20;;;;;;;18.99;74.13;98631.91;4884368;29;20052;-80
2021/07/31 03:52:38;;;;;;;0.20;0.20;;;;;;;19.12;73.70;98618.00;4881955;29;20127;-82
2021/07/31 03:55:06;;;;;;;0.20;0.20;;;;;;;19.36;72.69;98635.38;4926078;29;20180;-82
2021/07/31 03:57:33;;;;;;;0.20;0.20;;;;;;;19.31;72.37;98627.03;4915920;29;20055;-83
2021/07/31 04:00:00;;;;;;;0.30;0.30;;;;;;;19.46;72.07;98624.69;4895856;29;20521;-81
2021/07/31 04:02:26;;;;;;;0.20;0.20;;;;;;;19.50;71.81;98625.06;4923350;29;20052;-80
2021/07/31 04:04:53;;;;;;;0.20;0.20;;;;;;;19.67;71.00;98619.75;4901782;29;20112;-82
2021/07/31 04:07:19;;;;;;;0.20;0.20;;;;;;;19.85;70.15;98627.88;4914329;29;20078;-81
2021/07/31 04:10:03;;;;;;;0.30;0.30;;;;;;;19.86;69.45;98624.09;4928300;29;20058;-81
2021/07/31 04:12:56;;;;;;;0.20;0.20;;;;;;;19.89;68.91;98631.84;4901952;29;20115;-80
2021/07/31 04:15:43;;;;;;;0.20;0.20;;;;;;;20.17;68.58;98630.31;4923269;29;20060;-83
2021/07/31 04:18:10;;;;;;;0.20;0.20;;;;;;;20.34;68.04;98631.28;4910096;29;20064;-82
2021/07/31 04:20:37;;;;;;;0.20;0.20;;;;;;;20.50;67.73;98632.47;4932324;29;20048;-81
2021/07/31 04:23:04;;;;;;;0.20;0.20;;;;;;;20.67;67.24;98635.31;4934704;29;20056;-84
2021/07/31 04:25:41;;;;;;;0.25;0.25;;;;;;;20.51;67.16;98625.06;4891009;29;20155;-82
2021/07/31 04:28:07;;;;;;;0.30;0.30;;;;;;;20.90;66.95;98635.25;4907485;29;20434;-82
2021/07/31 04:30:34;;;;;;;0.30;0.30;;;;;;;21.16;65.50;98641.25;4905859;29;20118;-81
2021/07/31 04:33:00;;;;;;;0.20;0.20;;;;;;;21.05;65.62;98636.66;4914350;29;20319;-82
2021/07/31 04:35:32;;;;;;;0.40;0.40;;;;;;;21.30;64.95;98639.91;4930294;29;20046;-84
2021/07/31 04:37:59;;;;;;;0.30;0.30;;;;;;;21.70;63.65;98641.75;4911359;29;20044;-82
2021/07/31 04:40:25;;;;;;;0.30;0.30;;;;;;;22.03;62.81;98637.38;4910416;29;20075;-83
2021/07/31 04:42:52;;;;;;;0.30;0.30;;;;;;;22.22;61.58;98636.03;4898845;29;20473;-84
2021/07/31 04:45:18;;;;;;;0.40;0.40;;;;;;;22.51;60.76;98635.91;4906389;29;20485;-82
2021/07/31 04:47:44;;;;;;;0.30;0.30;;;;;;;22.88;59.83;98634.22;4896695;29;20051;-82
2021/07/31 04:50:14;;;;;;;0.30;0.30;;;;;;;22.48;60.72;98636.41;4909063;29;20055;-84
2021/07/31 04:52:40;;;;;;;0.30;0.30;;;;;;;22.44;61.06;98632.50;4888341;29;20063;-83
2021/07/31 04:55:07;;;;;;;0.30;0.30;;;;;;;22.56;59.96;98625.81;4911201;29;20048;-81
2021/07/31 04:57:33;;;;;;;0.32;0.32;;;;;;;22.52;59.75;98634.81;4907085;29;20092;-83
2021/07/31 04:59:59;;;;;;;0.30;0.30;;;;;;;22.40;59.94;98621.16;4932596;29;20048;-85
2021/07/31 05:02:25;;;;;;;0.50;0.50;;;;;;;22.66;59.88;98627.84;4929498;29;20474;-83
2021/07/31 05:04:51;;;;;;;0.40;0.40;;;;;;;23.29;57.73;98626.47;4894669;29;20068;-83
2021/07/31 05:07:17;;;;;;;0.40;0.40;;;;;;;23.69;56.69;98638.19;4913028;29;20052;-83
2021/07/31 05:09:44;;;;;;;0.40;0.40;;;;;;;23.66;56.41;98634.03;4927695;29;20043;-83
2021/07/31 05:12:11;;;;;;;0.40;0.40;;;;;;;23.99;54.79;98621.09;4877827;29;20099;-84
2021/07/31 05:14:37;;;;;;;0.40;0.40;;;;;;;24.53;53.96;98631.97;4907987;29;20120;-83
2021/07/31 05:17:04;;;;;;;0.40;0.40;;;;;;;24.58;53.79;98632.03;4913884;29;20103;-83
2021/07/31 05:19:32;;;;;;;0.40;0.40;;;;;;;24.51;54.13;98639.72;4926970;29;20045;-80
2021/07/31 05:21:59;;;;;;;0.40;0.40;;;;;;;25.14;52.88;98648.91;4924796;29;20074;-83
2021/07/31 05:24:25;;;;;;;0.52;0.52;;;;;;;25.80;51.06;98645.50;4928540;29;20402;-83
2021/07/31 05:26:51;;;;;;;0.40;0.40;;;;;;;26.06;49.98;98638.00;4898868;29;20055;-83
2021/07/31 05:29:17;;;;;;;0.40;0.40;;;;;;;26.58;48.32;98639.66;4883244;29;20143;-82
2021/07/31 05:31:43;;;;;;;0.40;0.40;;;;;;;26.86;46.92;98634.59;4896422;29;20111;-83
2021/07/31 05:34:11;;;;;;;0.50;0.50;;;;;;;27.24;45.99;98646.09;4929832;29;20084;-83
2021/07/31 05:36:38;;;;;;;0.47;0.47;;;;;;;26.82;46.80;98641.81;4919677;29;20059;-85
2021/07/31 05:39:06;;;;;;;0.40;0.40;;;;;;;26.32;47.86;98641.59;4903327;29;20048;-82
2021/07/31 05:41:32;;;;;;;0.50;0.50;;;;;;;26.05;48.56;98636.38;4929172;29;20126;-84
2021/07/31 05:43:58;;;;;;;0.50;0.50;;;;;;;26.52;47.93;98635.25;4894198;29;20535;-83
2021/07/31 05:46:25;;;;;;;0.50;0.50;;;;;;;27.32;46.45;98637.19;4928140;29;20052;-85
2021/07/31 05:48:52;;;;;;;0.50;0.50;;;;;;;27.93;45.16;98645.13;4883439;29;20067;-84
2021/07/31 05:51:19;;;;;;;0.50;0.50;;;;;;;26.72;47.52;98639.88;4934256;29;20067;-83
2021/07/31 05:53:45;;;;;;;0.50;0.50;;;;;;;26.78;46.97;98646.25;4922506;29;20095;-83
2021/07/31 05:56:12;;;;;;;0.50;0.50;;;;;;;26.84;47.07;98631.25;4935884;29;20086;-85
2021/07/31 05:58:38;;;;;;;0.50;0.50;;;;;;;27.04;46.06;98642.28;4889169;29;20052;-83
2021/07/31 06:01:05;;;;;;;0.50;0.50;;;;;;;27.38;45.88;98641.59;4908683;29;20043;-83
2021/07/31 06:03:33;;;;;;;0.60;0.60;;;;;;;27.86;44.07;98628.81;4902487;29;20055;-83
2021/07/31 06:05:59;;;;;;;0.50;0.50;;;;;;;28.27;43.48;98630.44;4933494;29;20078;-84
2021/07/31 06:08:26;;;;;;;0.57;0.57;;;;;;;27.64;43.93;98629.22;4907166;29;20048;-83
2021/07/31 06:11:05;;;;;;;0.52;0.52;;;;;;;27.46;43.95;98632.69;4909956;29;20065;-85
2021/07/31 06:13:32;;;;;;;0.60;0.60;;;;;;;28.27;42.03;98631.25;4915006;29;20529;-84
2021/07/31 06:15:59;;;;;;;0.60;0.60;;;;;;;28.52;40.85;98634.91;4916198;29;20050;-87
2021/07/31 06:18:26;;;;;;;0.63;0.63;;;;;;;29.35;40.25;98638.41;4894979;29;20079;-83
2021/07/31 06:20:53;;;;;;;0.60;0.60;;;;;;;30.11;38.50;98634.50;4912481;29;20079;-83
2021/07/31 06:23:22;;;;;;;0.60;0.60;;;;;;;29.89;38.61;98624.00;4919539;29;20108;-84
2021/07/31 06:25:50;;;;;;;0.60;0.60;;;;;;;30.70;37.92;98629.28;4914083;29;20048;-85
2021/07/31 06:28:17;;;;;;;0.60;0.60;;;;;;;30.54;37.68;98628.75;4890299;29;20151;-81
2021/07/31 06:30:43;;;;;;;0.60;0.60;;;;;;;28.68;39.86;98630.03;4925179;29;20052;-83
2021/07/31 06:33:11;;;;;;;0.70;0.70;;;;;;;29.17;39.48;98626.94;4919374;29;20079;-84
2021/07/31 06:35:37;;;;;;;0.60;0.60;;;;;;;30.08;37.80;98623.13;4919449;29;20053;-84
2021/07/31 06:38:04;;;;;;;0.70;0.70;;;;;;;29.89;38.00;98618.41;4907822;29;20597;-85
2021/07/31 06:40:31;;;;;;;0.70;0.70;;;;;;;29.49;37.43;98633.75;4918006;29;20047;-84
2021/07/31 06:42:58;;;;;;;0.90;0.90;;;;;;;29.97;37.01;98625.25;4933147;29;20063;-87
2021/07/31 06:45:25;;;;;;;0.10;0.10;;;;;;;29.55;37.71;98627.81;4912412;29;20049;-84
2021/07/31 06:47:51;;;;;;;0.70;0.70;;;;;;;30.06;37.26;98625.38;4883699;29;20192;-74
2021/07/31 06:50:17;;;;;;;0.80;0.80;;;;;;;30.76;35.64;98627.25;4916304;29;20172;-75
2021/07/31 06:52:42;;;;;;;0.30;0.30;;;;;;;31.02;35.03;98631.19;4908504;29;20055;-74
2021/07/31 06:55:09;;;;;;;0.80;0.80;;;;;;;30.23;35.93;98636.84;4915598;29;20052;-77
2021/07/31 06:57:34;;;;;;;0.80;0.80;;;;;;;31.43;33.36;98630.34;4913740;29;20075;-77
2021/07/31 07:00:00;;;;;;;0.80;0.80;;;;;;;29.65;35.99;98632.44;4901873;29;20203;-76
2021/07/31 07:02:26;;;;;;;0.80;0.80;;;;;;;30.63;34.76;98623.28;4902883;29;20075;-79
2021/07/31 07:04:52;;;;;;;0.90;0.90;;;;;;;29.48;34.13;98624.59;4900645;29;20451;-78
2021/07/31 07:07:19;;;;;;;0.80;0.80;;;;;;;30.73;33.01;98631.47;4882351;29;20514;-78
2021/07/31 07:09:45;;;;;;;0.88;0.88;;;;;;;30.79;31.63;98621.88;4892040;29;20068;-77
2021/07/31 07:12:11;;;;;;;0.88;0.88;;;;;;;31.16;31.38;98620.00;4893582;29;20055;-75
2021/07/31 07:14:37;;;;;;;0.80;0.80;;;;;;;31.76;29.90;98622.56;4894133;29;20086;-77
2021/07/31 07:17:06;;;;;;;0.80;0.80;;;;;;;32.28;29.09;98625.78;4907943;29;20604;-76
2021/07/31 07:19:33;;;;;;;0.82;0.82;;;;;;;32.39;28.01;98629.97;4894244;29;20160;-75
2021/07/31 07:21:59;;;;;;;0.90;0.90;;;;;;;31.19;28.71;98625.81;4913207;29;20482;-76
2021/07/31 07:24:25;;;;;;;0.90;0.90;;;;;;;31.82;27.78;98634.47;4897124;29;20099;-79
2021/07/31 07:26:51;;;;;;;0.80;0.80;;;;;;;32.90;26.52;98623.00;4882723;29;20064;-77
2021/07/31 07:29:17;;;;;;;0.80;0.80;;;;;;;32.93;26.41;98637.50;4911449;29;20496;-77
2021/07/31 07:31:43;;;;;;;0.90;0.90;;;;;;;33.21;26.32;98624.94;4912424;29;20051;-77
2021/07/31 07:34:08;;;;;;;0.85;0.85;;;;;;;33.27;26.07;98634.81;4897120;29;20044;-76
2021/07/31 07:36:34;;;;;;;0.80;0.80;;;;;;;33.76;25.40;98627.19;4897849;29;20400;-78
2021/07/31 07:39:00;;;;;;;1.00;1.00;;;;;;;34.27;24.67;98628.31;4895429;29;20104;-76
2021/07/31 07:41:26;;;;;;;1.00;1.00;;;;;;;34.55;24.06;98633.56;4913351;29;20056;-78
2021/07/31 07:43:52;;;;;;;0.80;0.80;;;;;;;33.74;24.77;98635.09;4921002;29;20548;-75
2021/07/31 07:46:18;;;;;;;0.80;0.80;;;;;;;33.05;25.62;98634.94;4891635;29;20086;-76
2021/07/31 07:48:45;;;;;;;0.88;0.88;;;;;;;34.36;24.90;98621.88;4929199;29;20059;-76
2021/07/31 07:51:12;;;;;;;1.00;1.00;;;;;;;33.68;25.19;98625.22;4923034;29;20044;-79
2021/07/31 07:53:38;;;;;;;0.88;0.88;;;;;;;34.01;25.54;98633.16;4925574;29;20055;-76
2021/07/31 07:56:04;;;;;;;0.90;0.90;;;;;;;33.85;25.35;98636.41;4917037;29;20124;-77
2021/07/31 07:58:29;;;;;;;0.95;0.95;;;;;;;33.25;25.44;98639.94;4909352;29;20067;-76
2021/07/31 08:00:55;;;;;;;1.05;1.00;;;;;;;31.83;26.66;98644.50;4907748;29;20070;-77
2021/07/31 08:03:21;;;;;;;1.00;1.00;;;;;;;30.27;29.03;98621.13;4887839;29;20415;-78
2021/07/31 08:05:48;;;;;;;1.00;1.00;;;;;;;30.55;29.91;98621.22;4912312;29;20142;-77
2021/07/31 08:08:14;;;;;;;1.08;1.08;;;;;;;31.84;27.69;98630.19;4906113;29;20048;-77
2021/07/31 08:10:39;;;;;;;1.00;1.00;;;;;;;31.92;27.05;98626.69;4921788;29;20044;-76
2021/07/31 08:13:05;;;;;;;1.00;1.00;;;;;;;33.39;25.30;98637.00;4890398;29;20195;-77
2021/07/31 08:15:31;;;;;;;1.00;1.00;;;;;;;34.46;23.58;98638.34;4922717;29;20084;-78
2021/07/31 08:17:58;;;;;;;0.90;0.90;;;;;;;35.26;23.17;98639.41;4922922;29;20074;-76
2021/07/31 08:20:24;;;;;;;1.17;1.17;;;;;;;34.38;23.92;98647.63;4911021;29;20482;-78
2021/07/31 08:22:50;;;;;;;1.10;1.10;;;;;;;33.91;24.82;98655.91;4915957;29;20577;-76
2021/07/31 08:25:16;;;;;;;1.20;1.20;;;;;;;33.46;25.08;98644.91;4926043;29;20047;-77
2021/07/31 08:27:42;;;;;;;0.32;0.30;;;;;;;32.10;26.89;98651.97;4921449;29;20048;-76
2021/07/31 08:30:09;;;;;;;1.20;1.20;;;;;;;33.01;26.10;98656.34;4909948;29;20095;-77
2021/07/31 08:32:35;;;;;;;1.10;1.10;;;;;;;33.76;24.88;98669.25;4908892;29;20552;-76
2021/07/31 08:35:00;;;;;;;1.05;1.05;;;;;;;32.04;27.93;98644.88;4925594;29;20079;-79
2021/07/31 08:37:27;;;;;;;1.10;1.10;;;;;;;31.20;29.07;98637.78;4909882;29;20071;-77
2021/07/31 08:39:53;;;;;;;1.25;1.25;;;;;;;31.93;28.21;98639.53;4893364;29;20122;-77
2021/07/31 08:42:21;;;;;;;1.20;1.20;;;;;;;32.09;27.20;98653.94;4905180;29;20052;-77
2021/07/31 08:44:49;;;;;;;1.00;1.00;;;;;;;31.34;28.19;98644.22;4929896;29;20142;-77
2021/07/31 08:47:17;;;;;;;1.00;1.00;;;;;;;31.51;28.06;98653.91;4886688;29;20044;-75
2021/07/31 08:49:45;;;;;;;1.20;1.20;;;;;;;31.61;27.79;98646.13;4910346;29;20044;-77
2021/07/31 08:52:15;;;;;;;1.10;1.10;;;;;;;32.45;26.55;98652.25;4879344;29;20147;-79
2021/07/31 08:54:44;;;;;;;1.20;1.20;;;;;;;33.59;25.45;98629.97;4864649;29;20586;-77
2021/07/31 08:57:14;;;;;;;1.30;1.30;;;;;;;33.07;26.61;98638.25;4911459;29;20060;-78
2021/07/31 08:59:45;;;;;;;0.20;0.20;;;;;;;31.52;28.15;98638.78;4865188;29;20209;-78
2021/07/31 09:02:14;;;;;;;0.10;0.10;;;;;;;30.76;29.34;98642.03;4912558;29;20103;-77
2021/07/31 09:04:44;;;;;;;1.27;1.27;;;;;;;32.19;27.67;98647.28;4913490;29;20135;-76
2021/07/31 09:07:16;;;;;;;0.35;0.35;;;;;;;32.55;27.02;98638.81;4911178;29;20052;-78
2021/07/31 09:09:46;;;;;;;;;;;;;;;31.67;28.03;98635.66;4910978;29;20048;-78
2021/07/31 09:12:12;;;;;;;0.93;0.93;;;;;;;31.63;28.40;98629.03;4895176;29;19934;-77
2021/07/31 09:14:44;;;;;;;1.30;1.30;;;;;;;32.03;28.06;98638.47;4912946;29;20044;-76
2021/07/31 09:17:24;;;;;;;1.20;1.20;;;;;;;33.27;25.80;98636.81;4896599;29;20123;-76
2021/07/31 09:19:51;;;;;;;1.20;1.20;;;;;;;32.96;26.50;98642.50;4914034;29;20056;-76
2021/07/31 09:22:17;;;;;;;1.20;1.20;;;;;;;32.36;27.36;98636.22;4895233;29;20546;-77
2021/07/31 09:24:43;;;;;;;0.10;0.10;;;;;;;31.96;27.96;98648.41;4914808;29;20063;-76
2021/07/31 09:27:24;;;;;;;0.20;0.20;;;;;;;32.08;28.18;98641.13;4897797;29;20056;-78
2021/07/31 09:30:01;;;;;;;0.10;0.10;;;;;;;30.82;29.89;98635.19;4900236;29;20558;-75
2021/07/31 09:32:42;;;;;;;0.10;0.10;;;;;;;31.00;29.21;98650.19;4915601;29;20467;-77
2021/07/31 09:35:21;;;;;;;0.10;0.10;;;;;;;30.12;30.90;98636.16;4901832;29;20056;-77
2021/07/31 09:37:50;;;;;;;0.10;0.10;;;;;;;29.38;32.03;98643.41;4900878;29;20124;-74
2021/07/31 09:40:27;;;;;;;1.10;1.10;;;;;;;30.50;30.95;98648.06;4897809;29;20050;-76
2021/07/31 09:42:56;;;;;;;0.75;0.75;;;;;;;29.70;32.04;98639.91;4895663;29;20067;-77
2021/07/31 09:45:32;;;;;;;0.10;0.10;;;;;;;30.35;31.67;98636.34;4898139;29;20053;-75
2021/07/31 09:48:00;;;;;;;1.00;1.00;;;;;;;31.27;29.71;98654.97;4896483;29;20044;-77
2021/07/31 09:50:37;;;;;;;1.00;1.00;;;;;;;32.05;28.52;98646.53;4899646;29;20432;-76
2021/07/31 09:53:20;;;;;;;1.10;1.10;;;;;;;32.86;27.01;98644.38;4914393;29;20063;-77
2021/07/31 09:55:51;;;;;;;0.90;0.90;;;;;;;33.35;26.13;98662.06;4901076;29;20183;-76
2021/07/31 09:58:19;;;;;;;0.90;0.90;;;;;;;32.81;26.01;98643.72;4917303;29;20371;-77
2021/07/31 10:00:46;;;;;;;0.90;0.90;;;;;;;33.03;25.34;98665.25;4915416;29;20088;-77
2021/07/31 10:03:13;;;;;;;0.93;0.93;;;;;;;30.94;28.59;98645.88;4902639;29;20056;-76
2021/07/31 10:05:40;;;;;;;0.90;0.90;;;;;;;30.79;28.61;98660.97;4918795;29;20049;-79
2021/07/31 10:08:07;;;;;;;0.90;0.90;;;;;;;31.71;26.91;98664.63;4915349;29;20168;-77
2021/07/31 10:10:33;;;;;;;1.00;1.00;;;;;;;31.45;26.50;98668.00;4896165;29;20055;-78
2021/07/31 10:13:00;;;;;;;0.98;0.98;;;;;;;31.66;26.87;98668.34;4917443;29;20442;-77
2021/07/31 10:15:26;;;;;;;0.95;0.95;;;;;;;30.54;27.57;98641.88;4917919;29;20063;-77
2021/07/31 10:17:53;;;;;;;0.90;0.90;;;;;;;32.55;25.80;98660.38;4900693;29;20060;-78
2021/07/31 10:20:31;;;;;;;0.90;0.90;;;;;;;32.89;25.01;98652.16;4917292;29;20064;-77
2021/07/31 10:22:57;;;;;;;0.17;0.17;;;;;;;30.88;27.53;98653.50;4917629;29;20750;-76
2021/07/31 10:25:24;;;;;;;0.10;0.10;;;;;;;30.91;27.63;98655.69;4913989;29;20043;-75
2021/07/31 10:27:53;;;;;;;0.52;0.52;;;;;;;31.06;27.23;98650.94;4912164;29;20580;-76
2021/07/31 10:30:26;;;;;;;1.10;1.10;;;;;;;30.83;28.02;98650.84;4917490;29;20529;-76
2021/07/31 10:32:52;;;;;;;1.00;1.00;;;;;;;30.83;27.52;98655.59;4899363;29;20138;-77
2021/07/31 10:35:25;;;;;;;0.80;0.80;;;;;;;31.51;26.78;98648.31;4912970;29;20102;-77
2021/07/31 10:37:53;;;;;;;0.98;0.98;;;;;;;32.37;25.64;98654.66;4915999;29;20107;-76
2021/07/31 10:40:33;;;;;;;0.47;0.47;;;;;;;30.96;27.62;98655.56;4917463;29;20075;-78
2021/07/31 10:42:58;;;;;;;0.10;0.10;;;;;;;29.99;28.20;98643.34;4918726;29;20116;-75
2021/07/31 10:45:28;;;;;;;0.20;0.20;;;;;;;29.97;28.95;98645.59;4911207;29;20588;-74
2021/07/31 10:48:00;;;;;;;0.90;0.90;;;;;;;30.57;27.99;98646.81;4914785;29;20064;-74
2021/07/31 10:50:26;;;;;;;0.90;0.90;;;;;;;31.19;27.63;98650.09;4899517;29;20120;-76
2021/07/31 10:53:12;;;;;;;0.90;0.90;;;;;;;31.71;26.69;98653.47;4900218;29;20509;-76
2021/07/31 10:55:38;;;;;;;0.60;0.60;;;;;;;32.44;26.29;98656.22;4898293;29;20459;-77
2021/07/31 10:58:17;;;;;;;0.82;0.82;;;;;;;33.36;24.95;98649.69;4876889;29;20082;-78
2021/07/31 11:00:50;;;;;;;0.73;0.73;;;;;;;33.82;24.29;98651.13;4900587;29;20044;-76
2021/07/31 11:03:20;;;;;;;0.80;0.80;;;;;;;33.83;24.52;98661.16;4875075;29;20558;-77
2021/07/31 11:05:49;;;;;;;0.82;0.82;;;;;;;32.78;25.09;98653.59;4911842;29;20056;-78
2021/07/31 11:08:17;;;;;;;0.90;0.90;;;;;;;33.14;24.30;98672.22;4912014;29;20056;-77
2021/07/31 11:10:44;;;;;;;0.80;0.80;;;;;;;32.25;25.11;98662.81;4879760;29;20522;-77
2021/07/31 11:13:16;;;;;;;1.00;1.00;;;;;;;32.54;25.69;98653.13;4883252;29;20151;-77
2021/07/31 11:16:01;;;;;;;;;;;;;;;32.62;24.67;98652.38;4907188;29;20070;-76
2021/07/31 11:18:42;;;;;;;0.80;0.80;;;;;;;33.35;24.06;98662.06;4891681;29;20066;-77
2021/07/31 11:21:15;;;;;;;0.82;0.82;;;;;;;31.46;26.12;98664.06;4901914;29;20063;-78
2021/07/31 11:24:05;;;;;;;0.70;0.70;;;;;;;31.64;26.15;98653.88;4899523;29;20056;-77
2021/07/31 11:26:43;;;;;;;0.77;0.77;;;;;;;30.89;27.80;98671.91;4893341;29;20139;-75
2021/07/31 11:29:20;;;;;;;0.80;0.80;;;;;;;31.19;27.15;98664.03;4893364;29;20119;-78
2021/07/31 11:32:12;;;;;;;0.80;0.80;;;;;;;32.04;25.71;98673.66;4875213;29;20056;-78
2021/07/31 11:34:40;;;;;;;0.80;0.80;;;;;;;31.66;26.23;98673.13;4884975;29;20135;-77
2021/07/31 11:37:09;;;;;;;0.80;0.80;;;;;;;31.25;27.63;98660.00;4883216;29;20058;-77
2021/07/31 11:39:35;;;;;;;0.90;0.90;;;;;;;31.59;27.14;98661.53;4898716;29;20492;-76
2021/07/31 11:42:02;;;;;;;0.90;0.90;;;;;;;31.86;27.06;98661.50;4870011;29;20052;-77